sensor_id;sensor_type;location;lat;lon;timestamp;temperature;humidity
48836;DHT22;62581;47.342;7.908;2022-10-26T00:01:19;14.20;99.90
48836;DHT22;62581;47.342;7.908;2022-10-26T00:03:46;14.20;99.90
48836;DHT22;62581;47.342;7.908;2022-10-26T00:06:13;14.20;99.90
48836;DHT22;62581;47.342;7.908;2022-10-26T00:08:40;14.10;99.90
48836;DHT22;62581;47.342;7.908;2022-10-26T00:11:07;14.20;99.90
48836;DHT22;62581;47.342;7.908;2022-10-26T00:13:35;14.20;99.90
48836;DHT22;62581;47.342;7.908;2022-10-26T00:16:07;14.20;99.90
48836;DHT22;62581;47.342;7.908;2022-10-26T00:18:35;14.20;99.90
48836;DHT22;62581;47.342;7.908;2022-10-26T00:21:02;14.20;99.90
48836;DHT22;62581;47.342;7.908;2022-10-26T00:23:28;14.20;99.90
48836;DHT22;62581;47.342;7.908;2022-10-26T00:25:55;14.20;99.90
48836;DHT22;62581;47.342;7.908;2022-10-26T00:28:22;14.10;99.90
48836;DHT22;62581;47.342;7.908;2022-10-26T00:30:49;14.10;99.90
48836;DHT22;62581;47.342;7.908;2022-10-26T00:33:17;14.10;99.90
48836;DHT22;62581;47.342;7.908;2022-10-26T00:35:46;14.10;99.90
48836;DHT22;62581;47.342;7.908;2022-10-26T00:38:12;14.10;99.90
48836;DHT22;62581;47.342;7.908;2022-10-26T00:40:39;14.10;99.90
48836;DHT22;62581;47.342;7.908;2022-10-26T00:43:09;14.10;99.90
48836;DHT22;62581;47.342;7.908;2022-10-26T00:45:39;14.10;99.90
48836;DHT22;62581;47.342;7.908;2022-10-26T00:48:06;14.10;99.90
48836;DHT22;62581;47.342;7.908;2022-10-26T00:50:36;14.10;99.90
48836;DHT22;62581;47.342;7.908;2022-10-26T00:53:04;14.10;99.90
48836;DHT22;62581;47.342;7.908;2022-10-26T00:55:32;14.10;99.90
48836;DHT22;62581;47.342;7.908;2022-10-26T00:58:00;14.00;99.90
48836;DHT22;62581;47.342;7.908;2022-10-26T01:00:28;14.00;99.90
48836;DHT22;62581;47.342;7.908;2022-10-26T01:02:56;14.00;99.90
48836;DHT22;62581;47.342;7.908;2022-10-26T01:05:23;14.00;99.90
48836;DHT22;62581;47.342;7.908;2022-10-26T01:07:52;14.00;99.90
48836;DHT22;62581;47.342;7.908;2022-10-26T01:10:19;14.00;99.90
48836;DHT22;62581;47.342;7.908;2022-10-26T01:12:46;13.90;99.90
48836;DHT22;62581;47.342;7.908;2022-10-26T01:15:13;13.90;99.90
48836;DHT22;62581;47.342;7.908;2022-10-26T01:17:47;13.90;99.90
48836;DHT22;62581;47.342;7.908;2022-10-26T01:20:28;13.90;99.90
48836;DHT22;62581;47.342;7.908;2022-10-26T01:23:00;13.80;99.90
48836;DHT22;62581;47.342;7.908;2022-10-26T01:25:37;13.70;99.90
48836;DHT22;62581;47.342;7.908;2022-10-26T01:28:06;13.70;99.90
48836;DHT22;62581;47.342;7.908;2022-10-26T01:30:35;13.70;99.90
48836;DHT22;62581;47.342;7.908;2022-10-26T01:33:09;13.70;99.90
48836;DHT22;62581;47.342;7.908;2022-10-26T01:35:41;13.80;99.90
48836;DHT22;62581;47.342;7.908;2022-10-26T01:38:10;13.80;99.90
48836;DHT22;62581;47.342;7.908;2022-10-26T01:40:42;13.80;99.90
48836;DHT22;62581;47.342;7.908;2022-10-26T01:43:11;13.80;99.90
48836;DHT22;62581;47.342;7.908;2022-10-26T01:45:41;13.80;99.90
48836;DHT22;62581;47.342;7.908;2022-10-26T01:48:09;13.90;99.90
48836;DHT22;62581;47.342;7.908;2022-10-26T01:50:37;13.90;99.90
48836;DHT22;62581;47.342;7.908;2022-10-26T01:53:05;13.90;99.90
48836;DHT22;62581;47.342;7.908;2022-10-26T01:55:39;14.00;99.90
48836;DHT22;62581;47.342;7.908;2022-10-26T01:58:10;14.00;99.90
48836;DHT22;62581;47.342;7.908;2022-10-26T02:00:40;14.00;99.90
48836;DHT22;62581;47.342;7.908;2022-10-26T02:03:12;14.10;99.90
48836;DHT22;62581;47.342;7.908;2022-10-26T02:05:49;14.10;99.90
48836;DHT22;62581;47.342;7.908;2022-10-26T02:08:28;14.10;99.90
48836;DHT22;62581;47.342;7.908;2022-10-26T02:11:01;14.10;99.90
48836;DHT22;62581;47.342;7.908;2022-10-26T02:13:31;14.10;99.90
48836;DHT22;62581;47.342;7.908;2022-10-26T02:16:02;14.10;99.90
48836;DHT22;62581;47.342;7.908;2022-10-26T02:18:32;14.00;99.90
48836;DHT22;62581;47.342;7.908;2022-10-26T02:21:02;13.90;99.90
48836;DHT22;62581;47.342;7.908;2022-10-26T02:23:31;13.90;99.90
48836;DHT22;62581;47.342;7.908;2022-10-26T02:25:59;13.80;99.90
48836;DHT22;62581;47.342;7.908;2022-10-26T02:28:27;13.80;99.90
48836;DHT22;62581;47.342;7.908;2022-10-26T02:30:56;13.80;99.90
48836;DHT22;62581;47.342;7.908;2022-10-26T02:33:25;13.90;99.90
48836;DHT22;62581;47.342;7.908;2022-10-26T02:35:53;13.80;99.90
48836;DHT22;62581;47.342;7.908;2022-10-26T02:38:21;13.80;99.90
48836;DHT22;62581;47.342;7.908;2022-10-26T02:40:49;13.80;99.90
48836;DHT22;62581;47.342;7.908;2022-10-26T02:43:17;13.70;99.90
48836;DHT22;62581;47.342;7.908;2022-10-26T02:45:48;13.60;99.90
48836;DHT22;62581;47.342;7.908;2022-10-26T02:48:16;13.60;99.90
48836;DHT22;62581;47.342;7.908;2022-10-26T02:50:48;13.60;99.90
48836;DHT22;62581;47.342;7.908;2022-10-26T02:53:17;13.60;99.90
48836;DHT22;62581;47.342;7.908;2022-10-26T02:55:49;13.50;99.90
48836;DHT22;62581;47.342;7.908;2022-10-26T02:58:17;13.60;99.90
48836;DHT22;62581;47.342;7.908;2022-10-26T03:00:45;13.50;99.90
48836;DHT22;62581;47.342;7.908;2022-10-26T03:03:12;13.50;99.90
48836;DHT22;62581;47.342;7.908;2022-10-26T03:05:40;13.50;99.90
48836;DHT22;62581;47.342;7.908;2022-10-26T03:08:08;13.40;99.90
48836;DHT22;62581;47.342;7.908;2022-10-26T03:10:35;13.40;99.90
48836;DHT22;62581;47.342;7.908;2022-10-26T03:13:05;13.50;99.90
48836;DHT22;62581;47.342;7.908;2022-10-26T03:15:32;13.50;99.90
48836;DHT22;62581;47.342;7.908;2022-10-26T03:17:58;13.50;99.90
48836;DHT22;62581;47.342;7.908;2022-10-26T03:20:25;13.50;99.90
48836;DHT22;62581;47.342;7.908;2022-10-26T03:22:52;13.50;99.90
48836;DHT22;62581;47.342;7.908;2022-10-26T03:25:22;13.50;99.90
48836;DHT22;62581;47.342;7.908;2022-10-26T03:27:54;13.50;99.90
48836;DHT22;62581;47.342;7.908;2022-10-26T03:30:21;13.60;99.90
48836;DHT22;62581;47.342;7.908;2022-10-26T03:32:48;13.50;99.90
48836;DHT22;62581;47.342;7.908;2022-10-26T03:35:15;13.60;99.90
48836;DHT22;62581;47.342;7.908;2022-10-26T03:37:41;13.60;99.90
48836;DHT22;62581;47.342;7.908;2022-10-26T03:40:09;13.60;99.90
48836;DHT22;62581;47.342;7.908;2022-10-26T03:42:37;13.50;99.90
48836;DHT22;62581;47.342;7.908;2022-10-26T03:45:04;13.50;99.90
48836;DHT22;62581;47.342;7.908;2022-10-26T03:47:31;13.50;99.90
48836;DHT22;62581;47.342;7.908;2022-10-26T03:49:58;13.50;99.90
48836;DHT22;62581;47.342;7.908;2022-10-26T03:52:25;13.60;99.90
48836;DHT22;62581;47.342;7.908;2022-10-26T03:54:52;13.60;99.90
48836;DHT22;62581;47.342;7.908;2022-10-26T03:57:19;13.60;99.90
48836;DHT22;62581;47.342;7.908;2022-10-26T03:59:47;13.60;99.90
48836;DHT22;62581;47.342;7.908;2022-10-26T04:02:13;13.70;99.90
48836;DHT22;62581;47.342;7.908;2022-10-26T04:04:40;13.60;99.90
48836;DHT22;62581;47.342;7.908;2022-10-26T04:07:07;13.70;99.90
48836;DHT22;62581;47.342;7.908;2022-10-26T04:09:34;13.70;99.90
48836;DHT22;62581;47.342;7.908;2022-10-26T04:12:01;13.70;99.90
48836;DHT22;62581;47.342;7.908;2022-10-26T04:14:27;13.70;99.90
48836;DHT22;62581;47.342;7.908;2022-10-26T04:16:55;13.70;99.90
48836;DHT22;62581;47.342;7.908;2022-10-26T04:19:22;13.80;99.90
48836;DHT22;62581;47.342;7.908;2022-10-26T04:21:49;13.80;99.90
48836;DHT22;62581;47.342;7.908;2022-10-26T04:24:16;13.80;99.90
48836;DHT22;62581;47.342;7.908;2022-10-26T04:26:43;13.80;99.90
48836;DHT22;62581;47.342;7.908;2022-10-26T04:29:10;13.80;99.90
48836;DHT22;62581;47.342;7.908;2022-10-26T04:31:38;13.90;99.90
48836;DHT22;62581;47.342;7.908;2022-10-26T04:34:07;13.80;99.90
48836;DHT22;62581;47.342;7.908;2022-10-26T04:36:33;13.90;99.90
48836;DHT22;62581;47.342;7.908;2022-10-26T04:39:00;13.80;99.90
48836;DHT22;62581;47.342;7.908;2022-10-26T04:41:27;13.70;99.90
48836;DHT22;62581;47.342;7.908;2022-10-26T04:43:54;13.70;99.90
48836;DHT22;62581;47.342;7.908;2022-10-26T04:46:21;13.60;99.90
48836;DHT22;62581;47.342;7.908;2022-10-26T04:48:47;13.60;99.90
48836;DHT22;62581;47.342;7.908;2022-10-26T04:51:16;13.70;99.90
48836;DHT22;62581;47.342;7.908;2022-10-26T04:53:42;13.60;99.90
48836;DHT22;62581;47.342;7.908;2022-10-26T04:56:09;13.60;99.90
48836;DHT22;62581;47.342;7.908;2022-10-26T04:58:36;13.70;99.90
48836;DHT22;62581;47.342;7.908;2022-10-26T05:01:03;13.60;99.90
48836;DHT22;62581;47.342;7.908;2022-10-26T05:03:30;13.60;99.90
48836;DHT22;62581;47.342;7.908;2022-10-26T05:05:57;13.50;99.90
48836;DHT22;62581;47.342;7.908;2022-10-26T05:08:26;13.50;99.90
48836;DHT22;62581;47.342;7.908;2022-10-26T05:10:53;13.40;99.90
48836;DHT22;62581;47.342;7.908;2022-10-26T05:13:20;13.40;99.90
48836;DHT22;62581;47.342;7.908;2022-10-26T05:15:46;13.40;99.90
48836;DHT22;62581;47.342;7.908;2022-10-26T05:18:13;13.40;99.90
48836;DHT22;62581;47.342;7.908;2022-10-26T05:20:52;13.40;99.90
48836;DHT22;62581;47.342;7.908;2022-10-26T05:23:19;13.40;99.90
48836;DHT22;62581;47.342;7.908;2022-10-26T05:25:47;13.40;99.90
48836;DHT22;62581;47.342;7.908;2022-10-26T05:28:14;13.50;99.90
48836;DHT22;62581;47.342;7.908;2022-10-26T05:30:42;13.60;99.90
48836;DHT22;62581;47.342;7.908;2022-10-26T05:33:09;13.60;99.90
48836;DHT22;62581;47.342;7.908;2022-10-26T05:35:36;13.60;99.90
48836;DHT22;62581;47.342;7.908;2022-10-26T05:38:06;13.60;99.90
48836;DHT22;62581;47.342;7.908;2022-10-26T05:40:33;13.60;99.90
48836;DHT22;62581;47.342;7.908;2022-10-26T05:43:02;13.60;99.90
48836;DHT22;62581;47.342;7.908;2022-10-26T05:45:29;13.70;99.90
48836;DHT22;62581;47.342;7.908;2022-10-26T05:47:55;13.70;99.90
48836;DHT22;62581;47.342;7.908;2022-10-26T05:50:22;13.70;99.90
48836;DHT22;62581;47.342;7.908;2022-10-26T05:52:49;13.70;99.90
48836;DHT22;62581;47.342;7.908;2022-10-26T05:55:16;13.70;99.90
48836;DHT22;62581;47.342;7.908;2022-10-26T05:57:44;13.70;99.90
48836;DHT22;62581;47.342;7.908;2022-10-26T06:00:15;13.70;99.90
48836;DHT22;62581;47.342;7.908;2022-10-26T06:02:45;13.70;99.90
48836;DHT22;62581;47.342;7.908;2022-10-26T06:05:17;13.70;99.90
48836;DHT22;62581;47.342;7.908;2022-10-26T06:07:46;13.70;99.90
48836;DHT22;62581;47.342;7.908;2022-10-26T06:10:13;13.70;99.90
48836;DHT22;62581;47.342;7.908;2022-10-26T06:12:40;13.70;99.90
48836;DHT22;62581;47.342;7.908;2022-10-26T06:15:08;13.60;99.90
48836;DHT22;62581;47.342;7.908;2022-10-26T06:17:42;13.70;99.90
48836;DHT22;62581;47.342;7.908;2022-10-26T06:20:17;13.70;99.90
48836;DHT22;62581;47.342;7.908;2022-10-26T06:22:51;13.70;99.90
48836;DHT22;62581;47.342;7.908;2022-10-26T06:25:23;13.70;99.90
48836;DHT22;62581;47.342;7.908;2022-10-26T06:27:53;13.70;99.90
48836;DHT22;62581;47.342;7.908;2022-10-26T06:30:25;13.70;99.90
48836;DHT22;62581;47.342;7.908;2022-10-26T06:32:53;13.70;99.90
48836;DHT22;62581;47.342;7.908;2022-10-26T06:35:24;13.70;99.90
48836;DHT22;62581;47.342;7.908;2022-10-26T06:37:52;13.80;99.90
48836;DHT22;62581;47.342;7.908;2022-10-26T06:40:22;13.80;99.90
48836;DHT22;62581;47.342;7.908;2022-10-26T06:42:49;13.80;99.90
48836;DHT22;62581;47.342;7.908;2022-10-26T06:45:16;13.80;99.90
48836;DHT22;62581;47.342;7.908;2022-10-26T06:47:45;13.80;99.90
48836;DHT22;62581;47.342;7.908;2022-10-26T06:50:23;13.90;99.90
48836;DHT22;62581;47.342;7.908;2022-10-26T06:52:53;13.90;99.90
48836;DHT22;62581;47.342;7.908;2022-10-26T06:55:23;14.00;99.90
48836;DHT22;62581;47.342;7.908;2022-10-26T06:57:51;14.10;99.90
48836;DHT22;62581;47.342;7.908;2022-10-26T07:00:19;14.10;99.90
48836;DHT22;62581;47.342;7.908;2022-10-26T07:02:46;14.10;99.90
48836;DHT22;62581;47.342;7.908;2022-10-26T07:05:13;14.00;99.90
48836;DHT22;62581;47.342;7.908;2022-10-26T07:07:41;14.00;99.90
48836;DHT22;62581;47.342;7.908;2022-10-26T07:10:09;14.00;99.90
48836;DHT22;62581;47.342;7.908;2022-10-26T07:12:36;14.00;99.90
48836;DHT22;62581;47.342;7.908;2022-10-26T07:15:03;14.10;99.90
48836;DHT22;62581;47.342;7.908;2022-10-26T07:17:30;14.10;99.90
48836;DHT22;62581;47.342;7.908;2022-10-26T07:19:57;14.20;99.90
48836;DHT22;62581;47.342;7.908;2022-10-26T07:22:24;14.10;99.90
48836;DHT22;62581;47.342;7.908;2022-10-26T07:24:52;14.20;99.90
48836;DHT22;62581;47.342;7.908;2022-10-26T07:27:19;14.20;99.90
48836;DHT22;62581;47.342;7.908;2022-10-26T07:29:45;14.30;99.90
48836;DHT22;62581;47.342;7.908;2022-10-26T07:32:12;14.40;99.90
48836;DHT22;62581;47.342;7.908;2022-10-26T07:34:39;14.50;99.90
48836;DHT22;62581;47.342;7.908;2022-10-26T07:37:06;14.60;99.90
48836;DHT22;62581;47.342;7.908;2022-10-26T07:39:32;14.70;99.90
48836;DHT22;62581;47.342;7.908;2022-10-26T07:42:01;14.80;99.90
48836;DHT22;62581;47.342;7.908;2022-10-26T07:44:27;14.90;99.90
48836;DHT22;62581;47.342;7.908;2022-10-26T07:46:54;15.00;99.90
48836;DHT22;62581;47.342;7.908;2022-10-26T07:49:21;15.00;99.90
48836;DHT22;62581;47.342;7.908;2022-10-26T07:51:48;15.10;99.90
48836;DHT22;62581;47.342;7.908;2022-10-26T07:54:14;15.10;99.90
48836;DHT22;62581;47.342;7.908;2022-10-26T07:56:41;15.10;99.90
48836;DHT22;62581;47.342;7.908;2022-10-26T07:59:11;15.20;99.90
48836;DHT22;62581;47.342;7.908;2022-10-26T08:01:38;15.20;99.90
48836;DHT22;62581;47.342;7.908;2022-10-26T08:04:04;15.10;99.90
48836;DHT22;62581;47.342;7.908;2022-10-26T08:06:31;15.10;99.90
48836;DHT22;62581;47.342;7.908;2022-10-26T08:08:58;15.10;99.90
48836;DHT22;62581;47.342;7.908;2022-10-26T08:11:25;15.10;99.90
48836;DHT22;62581;47.342;7.908;2022-10-26T08:13:51;15.10;99.90
48836;DHT22;62581;47.342;7.908;2022-10-26T08:16:20;15.10;99.90
48836;DHT22;62581;47.342;7.908;2022-10-26T08:18:47;15.00;99.90
48836;DHT22;62581;47.342;7.908;2022-10-26T08:21:14;15.00;99.90
48836;DHT22;62581;47.342;7.908;2022-10-26T08:23:40;15.00;99.90
48836;DHT22;62581;47.342;7.908;2022-10-26T08:26:07;14.90;99.90
48836;DHT22;62581;47.342;7.908;2022-10-26T08:28:36;14.90;99.90
48836;DHT22;62581;47.342;7.908;2022-10-26T08:31:03;14.80;99.90
48836;DHT22;62581;47.342;7.908;2022-10-26T08:33:31;14.70;99.90
48836;DHT22;62581;47.342;7.908;2022-10-26T08:35:59;14.70;99.90
48836;DHT22;62581;47.342;7.908;2022-10-26T08:38:26;14.60;99.90
48836;DHT22;62581;47.342;7.908;2022-10-26T08:40:53;14.70;99.90
48836;DHT22;62581;47.342;7.908;2022-10-26T08:43:23;14.70;99.90
48836;DHT22;62581;47.342;7.908;2022-10-26T08:45:53;14.70;99.90
48836;DHT22;62581;47.342;7.908;2022-10-26T08:48:21;14.60;99.90
48836;DHT22;62581;47.342;7.908;2022-10-26T08:50:51;14.60;99.90
48836;DHT22;62581;47.342;7.908;2022-10-26T08:53:19;14.60;99.90
48836;DHT22;62581;47.342;7.908;2022-10-26T08:55:50;14.60;99.90
48836;DHT22;62581;47.342;7.908;2022-10-26T08:58:19;14.70;99.90
48836;DHT22;62581;47.342;7.908;2022-10-26T09:00:48;14.70;99.90
48836;DHT22;62581;47.342;7.908;2022-10-26T09:03:16;14.80;99.90
48836;DHT22;62581;47.342;7.908;2022-10-26T09:05:49;14.90;99.90
48836;DHT22;62581;47.342;7.908;2022-10-26T09:08:22;14.90;99.90
48836;DHT22;62581;47.342;7.908;2022-10-26T09:10:52;14.90;99.90
48836;DHT22;62581;47.342;7.908;2022-10-26T09:13:25;15.00;99.90
48836;DHT22;62581;47.342;7.908;2022-10-26T09:15:56;15.00;99.90
48836;DHT22;62581;47.342;7.908;2022-10-26T09:18:28;15.20;99.90
48836;DHT22;62581;47.342;7.908;2022-10-26T09:21:00;15.20;99.90
48836;DHT22;62581;47.342;7.908;2022-10-26T09:23:38;15.20;99.90
48836;DHT22;62581;47.342;7.908;2022-10-26T09:26:08;15.30;99.90
48836;DHT22;62581;47.342;7.908;2022-10-26T09:28:36;15.40;99.90
48836;DHT22;62581;47.342;7.908;2022-10-26T09:31:03;15.40;99.90
48836;DHT22;62581;47.342;7.908;2022-10-26T09:33:32;15.50;99.90
48836;DHT22;62581;47.342;7.908;2022-10-26T09:36:01;15.60;99.90
48836;DHT22;62581;47.342;7.908;2022-10-26T09:38:29;15.70;99.90
48836;DHT22;62581;47.342;7.908;2022-10-26T09:40:58;15.70;99.90
48836;DHT22;62581;47.342;7.908;2022-10-26T09:43:27;15.80;99.90
48836;DHT22;62581;47.342;7.908;2022-10-26T09:45:55;15.80;99.90
48836;DHT22;62581;47.342;7.908;2022-10-26T09:48:24;15.90;99.90
48836;DHT22;62581;47.342;7.908;2022-10-26T09:50:53;15.90;99.90
48836;DHT22;62581;47.342;7.908;2022-10-26T09:53:22;16.00;99.90
48836;DHT22;62581;47.342;7.908;2022-10-26T09:55:49;16.20;99.90
48836;DHT22;62581;47.342;7.908;2022-10-26T09:58:19;16.20;99.90
48836;DHT22;62581;47.342;7.908;2022-10-26T10:00:47;16.20;99.90
48836;DHT22;62581;47.342;7.908;2022-10-26T10:03:17;16.20;99.90
48836;DHT22;62581;47.342;7.908;2022-10-26T10:05:44;16.20;99.90
48836;DHT22;62581;47.342;7.908;2022-10-26T10:08:15;16.20;99.90
48836;DHT22;62581;47.342;7.908;2022-10-26T10:10:58;16.20;99.90
48836;DHT22;62581;47.342;7.908;2022-10-26T10:13:28;16.30;99.90
48836;DHT22;62581;47.342;7.908;2022-10-26T10:15:56;16.40;99.90
48836;DHT22;62581;47.342;7.908;2022-10-26T10:18:24;16.40;99.90
48836;DHT22;62581;47.342;7.908;2022-10-26T10:20:51;16.40;99.90
48836;DHT22;62581;47.342;7.908;2022-10-26T10:23:23;16.50;99.90
48836;DHT22;62581;47.342;7.908;2022-10-26T10:25:57;16.60;99.90
48836;DHT22;62581;47.342;7.908;2022-10-26T10:28:25;16.70;99.90
48836;DHT22;62581;47.342;7.908;2022-10-26T10:30:53;16.80;99.90
48836;DHT22;62581;47.342;7.908;2022-10-26T10:33:30;16.90;99.90
48836;DHT22;62581;47.342;7.908;2022-10-26T10:35:58;17.00;99.90
48836;DHT22;62581;47.342;7.908;2022-10-26T10:38:25;17.10;99.90
48836;DHT22;62581;47.342;7.908;2022-10-26T10:40:52;17.20;99.90
48836;DHT22;62581;47.342;7.908;2022-10-26T10:43:20;17.30;99.90
48836;DHT22;62581;47.342;7.908;2022-10-26T10:45:48;17.30;99.90
48836;DHT22;62581;47.342;7.908;2022-10-26T10:48:17;17.40;99.90
48836;DHT22;62581;47.342;7.908;2022-10-26T10:50:52;17.50;99.90
48836;DHT22;62581;47.342;7.908;2022-10-26T10:53:20;17.60;99.90
48836;DHT22;62581;47.342;7.908;2022-10-26T10:55:51;17.70;99.90
48836;DHT22;62581;47.342;7.908;2022-10-26T10:58:22;17.80;99.90
48836;DHT22;62581;47.342;7.908;2022-10-26T11:00:49;17.90;99.90
48836;DHT22;62581;47.342;7.908;2022-10-26T11:03:31;18.00;99.90
48836;DHT22;62581;47.342;7.908;2022-10-26T11:06:03;18.00;99.90
48836;DHT22;62581;47.342;7.908;2022-10-26T11:08:31;18.00;99.90
48836;DHT22;62581;47.342;7.908;2022-10-26T11:10:59;18.00;99.90
48836;DHT22;62581;47.342;7.908;2022-10-26T11:13:30;18.10;99.90
48836;DHT22;62581;47.342;7.908;2022-10-26T11:16:00;18.10;99.90
48836;DHT22;62581;47.342;7.908;2022-10-26T11:18:32;18.10;99.90
48836;DHT22;62581;47.342;7.908;2022-10-26T11:21:00;18.30;99.90
48836;DHT22;62581;47.342;7.908;2022-10-26T11:23:30;18.50;99.90
48836;DHT22;62581;47.342;7.908;2022-10-26T11:25:59;18.60;99.90
48836;DHT22;62581;47.342;7.908;2022-10-26T11:28:33;18.70;99.90
48836;DHT22;62581;47.342;7.908;2022-10-26T11:31:02;18.90;99.90
48836;DHT22;62581;47.342;7.908;2022-10-26T11:33:32;19.00;99.90
48836;DHT22;62581;47.342;7.908;2022-10-26T11:36:02;19.30;99.90
48836;DHT22;62581;47.342;7.908;2022-10-26T11:38:32;19.40;99.90
48836;DHT22;62581;47.342;7.908;2022-10-26T11:41:01;19.50;99.90
48836;DHT22;62581;47.342;7.908;2022-10-26T11:43:29;19.50;99.90
48836;DHT22;62581;47.342;7.908;2022-10-26T11:46:01;19.60;99.90
48836;DHT22;62581;47.342;7.908;2022-10-26T11:48:30;19.80;99.90
48836;DHT22;62581;47.342;7.908;2022-10-26T11:51:00;20.10;99.90
48836;DHT22;62581;47.342;7.908;2022-10-26T11:53:29;20.30;99.90
48836;DHT22;62581;47.342;7.908;2022-10-26T11:55:57;20.50;99.90
48836;DHT22;62581;47.342;7.908;2022-10-26T11:58:25;20.80;99.90
48836;DHT22;62581;47.342;7.908;2022-10-26T12:00:53;21.30;99.90
48836;DHT22;62581;47.342;7.908;2022-10-26T12:03:22;21.50;99.90
48836;DHT22;62581;47.342;7.908;2022-10-26T12:05:51;21.30;99.90
48836;DHT22;62581;47.342;7.908;2022-10-26T12:08:22;21.60;99.90
48836;DHT22;62581;47.342;7.908;2022-10-26T12:10:51;22.10;99.90
48836;DHT22;62581;47.342;7.908;2022-10-26T12:13:23;22.50;99.90
48836;DHT22;62581;47.342;7.908;2022-10-26T12:15:53;22.90;99.90
48836;DHT22;62581;47.342;7.908;2022-10-26T12:18:23;22.80;99.90
48836;DHT22;62581;47.342;7.908;2022-10-26T12:20:52;22.60;99.90
48836;DHT22;62581;47.342;7.908;2022-10-26T12:23:22;22.60;99.90
48836;DHT22;62581;47.342;7.908;2022-10-26T12:25:50;22.70;99.90
48836;DHT22;62581;47.342;7.908;2022-10-26T12:28:38;22.60;99.90
48836;DHT22;62581;47.342;7.908;2022-10-26T12:33:50;22.80;99.90
48836;DHT22;62581;47.342;7.908;2022-10-26T12:39:24;23.70;99.90
48836;DHT22;62581;47.342;7.908;2022-10-26T12:41:54;24.00;99.90
48836;DHT22;62581;47.342;7.908;2022-10-26T12:44:31;24.20;99.90
48836;DHT22;62581;47.342;7.908;2022-10-26T12:46:59;24.70;99.90
48836;DHT22;62581;47.342;7.908;2022-10-26T12:52:17;25.20;99.90
48836;DHT22;62581;47.342;7.908;2022-10-26T12:54:47;25.70;99.90
48836;DHT22;62581;47.342;7.908;2022-10-26T12:57:20;26.00;99.90
48836;DHT22;62581;47.342;7.908;2022-10-26T12:59:50;26.30;99.90
48836;DHT22;62581;47.342;7.908;2022-10-26T13:07:44;27.10;99.90
48836;DHT22;62581;47.342;7.908;2022-10-26T13:10:19;27.10;99.90
48836;DHT22;62581;47.342;7.908;2022-10-26T13:12:47;27.20;99.90
48836;DHT22;62581;47.342;7.908;2022-10-26T13:15:21;27.20;99.90
48836;DHT22;62581;47.342;7.908;2022-10-26T13:17:52;27.10;99.90
48836;DHT22;62581;47.342;7.908;2022-10-26T13:20:20;26.90;99.90
48836;DHT22;62581;47.342;7.908;2022-10-26T13:22:47;27.10;99.90
48836;DHT22;62581;47.342;7.908;2022-10-26T13:25:20;27.60;99.90
48836;DHT22;62581;47.342;7.908;2022-10-26T13:27:56;28.10;99.90
48836;DHT22;62581;47.342;7.908;2022-10-26T13:33:15;28.50;99.90
48836;DHT22;62581;47.342;7.908;2022-10-26T13:35:43;28.60;99.90
48836;DHT22;62581;47.342;7.908;2022-10-26T13:38:10;28.20;99.90
48836;DHT22;62581;47.342;7.908;2022-10-26T13:40:39;28.50;99.90
48836;DHT22;62581;47.342;7.908;2022-10-26T13:43:10;28.80;99.90
48836;DHT22;62581;47.342;7.908;2022-10-26T13:45:40;29.00;99.90
48836;DHT22;62581;47.342;7.908;2022-10-26T13:48:13;29.40;99.90
48836;DHT22;62581;47.342;7.908;2022-10-26T13:50:43;28.90;99.90
48836;DHT22;62581;47.342;7.908;2022-10-26T13:53:13;28.60;99.90
48836;DHT22;62581;47.342;7.908;2022-10-26T13:55:48;28.60;99.90
48836;DHT22;62581;47.342;7.908;2022-10-26T13:58:17;28.60;99.90
48836;DHT22;62581;47.342;7.908;2022-10-26T14:01:01;28.70;99.90
48836;DHT22;62581;47.342;7.908;2022-10-26T14:03:27;29.00;99.90
48836;DHT22;62581;47.342;7.908;2022-10-26T14:05:55;29.30;99.80
48836;DHT22;62581;47.342;7.908;2022-10-26T14:08:22;29.60;98.80
48836;DHT22;62581;47.342;7.908;2022-10-26T14:10:52;30.30;98.10
48836;DHT22;62581;47.342;7.908;2022-10-26T14:13:21;30.70;96.60
48836;DHT22;62581;47.342;7.908;2022-10-26T14:15:49;30.70;96.80
48836;DHT22;62581;47.342;7.908;2022-10-26T14:18:17;30.70;96.10
48836;DHT22;62581;47.342;7.908;2022-10-26T14:20:48;30.80;95.90
48836;DHT22;62581;47.342;7.908;2022-10-26T14:23:25;30.90;95.70
48836;DHT22;62581;47.342;7.908;2022-10-26T14:25:53;31.10;94.80
48836;DHT22;62581;47.342;7.908;2022-10-26T14:28:21;31.10;95.20
48836;DHT22;62581;47.342;7.908;2022-10-26T14:30:48;31.30;94.10
48836;DHT22;62581;47.342;7.908;2022-10-26T14:33:16;31.10;93.80
48836;DHT22;62581;47.342;7.908;2022-10-26T14:35:42;30.40;95.00
48836;DHT22;62581;47.342;7.908;2022-10-26T14:38:12;30.50;94.80
48836;DHT22;62581;47.342;7.908;2022-10-26T14:40:40;30.70;94.10
48836;DHT22;62581;47.342;7.908;2022-10-26T14:43:13;30.70;94.10
48836;DHT22;62581;47.342;7.908;2022-10-26T14:45:45;29.90;94.50
48836;DHT22;62581;47.342;7.908;2022-10-26T14:48:19;29.80;95.00
48836;DHT22;62581;47.342;7.908;2022-10-26T14:50:56;30.00;95.10
48836;DHT22;62581;47.342;7.908;2022-10-26T14:53:25;30.00;95.20
48836;DHT22;62581;47.342;7.908;2022-10-26T14:55:53;30.10;94.80
48836;DHT22;62581;47.342;7.908;2022-10-26T14:58:23;30.20;94.70
48836;DHT22;62581;47.342;7.908;2022-10-26T15:03:33;30.10;94.60
48836;DHT22;62581;47.342;7.908;2022-10-26T15:08:42;29.50;95.80
48836;DHT22;62581;47.342;7.908;2022-10-26T15:11:11;29.10;96.60
48836;DHT22;62581;47.342;7.908;2022-10-26T15:13:39;28.90;96.90
48836;DHT22;62581;47.342;7.908;2022-10-26T15:16:09;28.60;96.50
48836;DHT22;62581;47.342;7.908;2022-10-26T15:18:36;28.00;98.40
48836;DHT22;62581;47.342;7.908;2022-10-26T15:21:06;27.20;99.60
48836;DHT22;62581;47.342;7.908;2022-10-26T15:23:43;26.50;99.90
48836;DHT22;62581;47.342;7.908;2022-10-26T15:26:10;25.80;99.90
48836;DHT22;62581;47.342;7.908;2022-10-26T15:28:37;25.30;99.90
48836;DHT22;62581;47.342;7.908;2022-10-26T15:31:06;24.90;99.90
48836;DHT22;62581;47.342;7.908;2022-10-26T15:36:30;24.30;99.90
48836;DHT22;62581;47.342;7.908;2022-10-26T15:39:00;24.00;99.90
48836;DHT22;62581;47.342;7.908;2022-10-26T15:41:27;23.70;99.90
48836;DHT22;62581;47.342;7.908;2022-10-26T15:43:54;23.60;99.90
48836;DHT22;62581;47.342;7.908;2022-10-26T15:46:23;23.40;99.90
48836;DHT22;62581;47.342;7.908;2022-10-26T15:48:53;23.30;99.90
48836;DHT22;62581;47.342;7.908;2022-10-26T15:51:20;23.10;99.90
48836;DHT22;62581;47.342;7.908;2022-10-26T15:53:47;23.00;99.90
48836;DHT22;62581;47.342;7.908;2022-10-26T15:56:15;22.80;99.90
48836;DHT22;62581;47.342;7.908;2022-10-26T15:58:42;22.50;99.90
48836;DHT22;62581;47.342;7.908;2022-10-26T16:01:09;22.30;99.90
48836;DHT22;62581;47.342;7.908;2022-10-26T16:03:40;22.10;99.90
48836;DHT22;62581;47.342;7.908;2022-10-26T16:06:07;21.90;99.90